Time;durP1;ratioP1;P1;durP2;ratioP2;P2;SDS_P1;SDS_P2;PMS_P1;PMS_P2;Temp;Humidity;BMP_temperature;BMP_pressure;BME280_temperature;BME280_humidity;BME280_pressure;Samples;Min_cycle;Max_cycle;Signal;HPM_P1;HPM_P2
2022/10/17 00:02:23;;;;;;;5.73;5.20;;;18.10;97.50;;;;;;5073881;28;20480;-73
2022/10/17 00:04:50;;;;;;;5.57;5.07;;;18.10;97.60;;;;;;5074828;28;20506;-73
2022/10/17 00:07:17;;;;;;;5.73;5.27;;;18.10;97.70;;;;;;5073792;28;21046;-73
2022/10/17 00:09:43;;;;;;;5.83;5.33;;;18.10;97.80;;;;;;5073919;28;20509;-73
2022/10/17 00:12:11;;;;;;;5.57;4.13;;;18.10;97.80;;;;;;5073662;28;20457;-73
2022/10/17 00:14:39;;;;;;;8.57;5.60;;;18.10;97.80;;;;;;5073946;28;20486;-72
2022/10/17 00:17:06;;;;;;;8.00;5.70;;;18.10;97.90;;;;;;5073570;28;20861;-73
2022/10/17 00:19:32;;;;;;;6.47;5.80;;;18.10;97.90;;;;;;5073793;28;20469;-73
2022/10/17 00:21:59;;;;;;;6.30;5.77;;;18.10;98.00;;;;;;5073285;28;20970;-73
2022/10/17 00:24:26;;;;;;;5.93;5.33;;;18.10;98.00;;;;;;5076633;28;20455;-73
2022/10/17 00:26:53;;;;;;;6.07;4.60;;;18.10;98.00;;;;;;5077553;28;20902;-73
2022/10/17 00:29:19;;;;;;;7.13;5.53;;;18.10;98.00;;;;;;5083482;28;20548;-72
2022/10/17 00:31:47;;;;;;;6.17;4.73;;;18.10;98.00;;;;;;5084732;28;20460;-72
2022/10/17 00:34:14;;;;;;;5.57;5.07;;;18.10;97.90;;;;;;5078118;28;20448;-72
2022/10/17 00:36:41;;;;;;;7.03;5.40;;;18.00;97.70;;;;;;5078382;28;20444;-73
2022/10/17 00:39:09;;;;;;;5.87;4.97;;;18.00;97.50;;;;;;5077721;28;20484;-73
2022/10/17 00:41:35;;;;;;;6.67;5.97;;;18.00;97.60;;;;;;5077713;28;20457;-72
2022/10/17 00:44:05;;;;;;;8.07;6.07;;;18.00;97.50;;;;;;5077594;28;20459;-73
2022/10/17 00:46:33;;;;;;;5.23;4.73;;;18.00;97.50;;;;;;5077364;28;20476;-73
2022/10/17 00:49:05;;;;;;;5.20;4.90;;;17.90;97.50;;;;;;5077044;28;20934;-73
2022/10/17 00:51:36;;;;;;;7.10;5.33;;;17.90;97.40;;;;;;5077469;28;20448;-73
2022/10/17 00:54:04;;;;;;;5.70;5.30;;;17.90;97.30;;;;;;5077292;28;20441;-73
2022/10/17 00:56:31;;;;;;;5.30;4.80;;;17.90;97.60;;;;;;5078060;28;20449;-73
2022/10/17 00:58:58;;;;;;;5.93;5.00;;;17.80;97.10;;;;;;5078012;28;20461;-73
2022/10/17 01:01:25;;;;;;;10.10;5.67;;;17.80;97.00;;;;;;5077277;28;20460;-73
2022/10/17 01:03:52;;;;;;;5.30;4.80;;;17.80;97.00;;;;;;5077122;28;20463;-73
2022/10/17 01:06:20;;;;;;;6.40;5.10;;;17.80;97.10;;;;;;5076962;28;20476;-73
2022/10/17 01:08:47;;;;;;;7.10;5.40;;;17.80;97.10;;;;;;5076886;28;20456;-73
2022/10/17 01:11:27;;;;;;;8.63;5.93;;;17.70;97.00;;;;;;5077192;28;20471;-73
2022/10/17 01:14:02;;;;;;;5.33;4.83;;;17.70;97.10;;;;;;5077242;28;20432;-73
2022/10/17 01:16:39;;;;;;;9.20;5.70;;;17.70;97.20;;;;;;5077097;28;20432;-73
2022/10/17 01:19:26;;;;;;;8.00;5.90;;;17.70;97.50;;;;;;5077317;28;20444;-73
2022/10/17 01:21:58;;;;;;;6.23;5.63;;;17.70;97.10;;;;;;5077524;28;20452;-73
2022/10/17 01:24:48;;;;;;;9.73;5.77;;;17.70;97.40;;;;;;5076774;28;20441;-73
2022/10/17 01:27:50;;;;;;;5.60;5.20;;;17.70;98.60;;;;;;5076578;28;20500;-73
2022/10/17 01:30:55;;;;;;;12.37;5.83;;;17.70;99.00;;;;;;5067310;28;20476;-73
2022/10/17 01:33:38;;;;;;;5.77;5.27;;;17.70;99.30;;;;;;5075251;28;20466;-73
2022/10/17 01:36:10;;;;;;;6.03;5.40;;;17.70;99.50;;;;;;5077063;28;20847;-73
2022/10/17 01:38:44;;;;;;;6.43;5.80;;;17.70;99.70;;;;;;5076511;28;20441;-73
2022/10/17 01:41:19;;;;;;;6.47;5.67;;;17.70;99.80;;;;;;5076413;28;20476;-73
2022/10/17 01:43:53;;;;;;;9.83;6.70;;;17.70;99.80;;;;;;5077400;28;20429;-73
2022/10/17 01:46:26;;;;;;;9.03;4.97;;;17.70;99.80;;;;;;5077632;28;20491;-73
2022/10/17 01:48:55;;;;;;;5.17;4.50;;;17.70;99.70;;;;;;5077141;28;20438;-73
2022/10/17 01:51:25;;;;;;;6.33;5.30;;;17.70;99.50;;;;;;5077367;28;20449;-73
2022/10/17 01:53:56;;;;;;;5.23;4.37;;;17.70;99.20;;;;;;5077069;28;20430;-73
2022/10/17 01:56:26;;;;;;;10.00;5.47;;;17.70;99.00;;;;;;5077734;28;20429;-73
2022/10/17 01:58:57;;;;;;;5.33;4.93;;;17.70;98.80;;;;;;5079617;28;20457;-73
2022/10/17 02:01:28;;;;;;;4.90;4.60;;;17.70;98.60;;;;;;5079826;28;20437;-73
2022/10/17 02:03:57;;;;;;;7.20;4.70;;;17.70;98.70;;;;;;5078669;28;20430;-73
2022/10/17 02:06:23;;;;;;;10.50;4.63;;;17.70;98.40;;;;;;5079425;28;20453;-73
2022/10/17 02:08:51;;;;;;;6.83;4.53;;;17.70;98.30;;;;;;5080474;28;20455;-73
2022/10/17 02:11:21;;;;;;;6.13;4.53;;;17.70;98.00;;;;;;5082244;28;20449;-73
2022/10/17 02:14:11;;;;;;;8.50;5.60;;;17.70;97.90;;;;;;5078917;28;20444;-73
2022/10/17 02:16:48;;;;;;;7.93;6.10;;;17.70;97.90;;;;;;5079061;28;20425;-73
2022/10/17 02:19:43;;;;;;;8.70;5.67;;;17.70;98.50;;;;;;5077706;28;20476;-73
2022/10/17 02:22:24;;;;;;;6.47;5.93;;;17.70;99.20;;;;;;5068551;28;20457;-73
2022/10/17 02:24:59;;;;;;;6.77;6.00;;;17.70;99.90;;;;;;5080550;28;20445;-73
2022/10/17 02:27:34;;;;;;;5.90;5.30;;;17.70;99.90;;;;;;5078767;28;20842;-73
2022/10/17 02:30:08;;;;;;;6.67;6.07;;;17.70;99.90;;;;;;5079558;28;20476;-72
2022/10/17 02:32:43;;;;;;;5.50;5.00;;;17.70;99.90;;;;;;5076850;28;20448;-72
2022/10/17 02:35:14;;;;;;;10.60;6.00;;;17.70;99.90;;;;;;5077947;28;20947;-72
2022/10/17 02:37:43;;;;;;;7.90;6.60;;;17.70;99.90;;;;;;5077100;28;20433;-72
2022/10/17 02:40:13;;;;;;;7.40;6.13;;;17.70;99.90;;;;;;5079840;28;20488;-72
2022/10/17 02:42:42;;;;;;;11.53;7.30;;;17.70;99.90;;;;;;5079460;28;20968;-72
2022/10/17 02:45:10;;;;;;;7.87;6.33;;;17.70;99.90;;;;;;5077814;28;20446;-72
2022/10/17 02:47:48;;;;;;;7.47;6.03;;;17.70;99.90;;;;;;5079151;28;20488;-72
2022/10/17 02:50:15;;;;;;;6.77;6.07;;;17.70;99.90;;;;;;5079919;28;21007;-72
2022/10/17 02:52:48;;;;;;;6.03;5.27;;;17.70;99.90;;;;;;5083627;28;20441;-73
2022/10/17 02:55:19;;;;;;;5.50;5.03;;;17.70;99.90;;;;;;5083837;28;20446;-73
2022/10/17 02:57:49;;;;;;;5.20;4.70;;;17.70;99.90;;;;;;5084234;28;20432;-72
2022/10/17 03:00:18;;;;;;;5.97;5.40;;;17.70;99.50;;;;;;5084531;28;20465;-72
2022/10/17 03:02:48;;;;;;;5.67;5.00;;;17.70;99.20;;;;;;5083254;28;20436;-72
2022/10/17 03:05:18;;;;;;;6.97;5.40;;;17.70;99.00;;;;;;5084114;28;20448;-73
2022/10/17 03:07:46;;;;;;;6.50;5.20;;;17.70;99.10;;;;;;5084613;28;20472;-73
2022/10/17 03:10:13;;;;;;;7.17;5.33;;;17.70;99.10;;;;;;5088908;28;20491;-73
2022/10/17 03:12:39;;;;;;;8.43;5.27;;;17.60;98.90;;;;;;5090892;28;20441;-73
2022/10/17 03:15:07;;;;;;;9.53;5.53;;;17.60;98.80;;;;;;5094117;28;20441;-73
2022/10/17 03:17:35;;;;;;;9.47;6.40;;;17.60;98.80;;;;;;5087863;28;20936;-73
2022/10/17 03:20:05;;;;;;;6.40;5.80;;;17.60;98.70;;;;;;5082884;28;20469;-73
2022/10/17 03:22:31;;;;;;;7.13;5.73;;;17.60;98.80;;;;;;5094062;28;20447;-73
2022/10/17 03:24:58;;;;;;;6.33;5.70;;;17.60;98.90;;;;;;5091714;28;20944;-73
2022/10/17 03:27:25;;;;;;;6.13;5.53;;;17.60;98.90;;;;;;5093299;28;20534;-73
2022/10/17 03:29:52;;;;;;;8.57;5.10;;;17.60;99.00;;;;;;5093326;28;20472;-73
2022/10/17 03:32:18;;;;;;;8.07;5.53;;;17.60;99.10;;;;;;5092739;28;20540;-73
2022/10/17 03:34:45;;;;;;;5.80;5.30;;;17.50;99.00;;;;;;5089388;28;20448;-73
2022/10/17 03:37:13;;;;;;;5.83;5.33;;;17.60;99.20;;;;;;5091724;28;20424;-73
2022/10/17 03:39:40;;;;;;;5.80;5.03;;;17.60;99.20;;;;;;5088505;28;20473;-73
2022/10/17 03:42:07;;;;;;;4.70;4.30;;;17.60;99.00;;;;;;5083748;28;20449;-72
2022/10/17 03:44:34;;;;;;;7.00;5.50;;;17.50;99.10;;;;;;5085597;28;20453;-72
2022/10/17 03:47:00;;;;;;;6.47;5.50;;;17.60;99.40;;;;;;5086998;28;20476;-72
2022/10/17 03:49:27;;;;;;;10.53;5.37;;;17.60;99.90;;;;;;5088546;28;20480;-72
2022/10/17 03:51:54;;;;;;;8.33;6.17;;;17.60;99.90;;;;;;5085708;28;20452;-73
2022/10/17 03:54:22;;;;;;;8.90;5.60;;;17.70;99.90;;;;;;5087182;28;20452;-72
2022/10/17 03:56:49;;;;;;;7.53;5.37;;;17.70;99.90;;;;;;5089465;28;20441;-72
2022/10/17 03:59:16;;;;;;;7.60;5.40;;;17.60;99.90;;;;;;5091805;28;20474;-72
2022/10/17 04:01:43;;;;;;;6.70;5.30;;;17.70;99.90;;;;;;5090209;28;20509;-73
2022/10/17 04:04:10;;;;;;;7.70;5.90;;;17.70;99.90;;;;;;5090702;28;20449;-73
2022/10/17 04:06:37;;;;;;;6.10;5.50;;;17.70;99.90;;;;;;5091012;28;20453;-73
2022/10/17 04:09:05;;;;;;;6.27;5.67;;;17.70;99.90;;;;;;5091814;28;20491;-73
2022/10/17 04:11:34;;;;;;;8.03;5.80;;;17.80;99.90;;;;;;5092503;28;20437;-73
2022/10/17 04:14:00;;;;;;;11.07;5.43;;;17.80;99.90;;;;;;5091163;28;20444;-73
2022/10/17 04:16:28;;;;;;;8.00;5.60;;;17.80;99.90;;;;;;5083509;28;20445;-72
2022/10/17 04:18:55;;;;;;;7.03;6.20;;;17.80;99.90;;;;;;5083469;28;20451;-72
2022/10/17 04:21:23;;;;;;;5.83;5.33;;;17.80;99.90;;;;;;5081983;28;20452;-72
2022/10/17 04:23:53;;;;;;;7.27;5.77;;;17.80;99.90;;;;;;5090592;28;20448;-72
2022/10/17 04:26:20;;;;;;;6.47;5.17;;;17.80;99.90;;;;;;5087631;28;20445;-72
2022/10/17 04:28:48;;;;;;;5.93;5.33;;;17.80;99.90;;;;;;5088377;28;20476;-72
2022/10/17 04:31:16;;;;;;;11.10;5.73;;;17.80;99.90;;;;;;5087619;28;20448;-73
2022/10/17 04:33:43;;;;;;;6.50;6.00;;;17.80;99.90;;;;;;5087440;28;20439;-73
2022/10/17 04:36:13;;;;;;;9.97;5.60;;;17.80;99.90;;;;;;5088519;28;20824;-73
2022/10/17 04:38:40;;;;;;;6.23;5.33;;;17.80;99.90;;;;;;5094670;28;20468;-73
2022/10/17 04:41:10;;;;;;;6.50;5.10;;;17.80;99.90;;;;;;5084456;28;20460;-73
2022/10/17 04:43:38;;;;;;;9.20;5.10;;;17.80;99.90;;;;;;5092112;28;20437;-73
2022/10/17 04:46:08;;;;;;;5.93;5.43;;;17.80;99.90;;;;;;5083001;28;20463;-73
2022/10/17 04:48:35;;;;;;;7.77;7.07;;;17.80;99.90;;;;;;5082470;28;20489;-72
2022/10/17 04:51:04;;;;;;;5.50;5.00;;;17.80;99.90;;;;;;5076979;28;20478;-73
2022/10/17 04:53:32;;;;;;;5.80;5.20;;;17.80;99.90;;;;;;5086870;28;20464;-73
2022/10/17 04:55:59;;;;;;;6.83;6.20;;;17.80;99.90;;;;;;5090446;28;20475;-73
2022/10/17 04:58:25;;;;;;;6.60;5.77;;;17.80;99.90;;;;;;5092633;28;20456;-73
2022/10/17 05:00:52;;;;;;;5.80;5.23;;;17.80;99.90;;;;;;5085198;28;20467;-73
2022/10/17 05:03:20;;;;;;;7.70;5.83;;;17.80;99.90;;;;;;5088616;28;20460;-71
2022/10/17 05:05:47;;;;;;;6.80;5.80;;;17.70;99.80;;;;;;5100438;28;20444;-72
2022/10/17 05:08:14;;;;;;;8.43;5.10;;;17.70;99.70;;;;;;5096718;28;20491;-72
2022/10/17 05:10:43;;;;;;;6.40;5.80;;;17.70;99.70;;;;;;5099413;28;20492;-72
2022/10/17 05:13:10;;;;;;;7.43;6.00;;;17.70;99.70;;;;;;5089293;28;20457;-72
2022/10/17 05:15:37;;;;;;;10.63;5.80;;;17.70;99.60;;;;;;5080937;28;20457;-72
2022/10/17 05:18:05;;;;;;;6.63;5.97;;;17.70;99.50;;;;;;5082361;28;20453;-72
2022/10/17 05:20:33;;;;;;;9.43;5.53;;;17.70;99.40;;;;;;5090131;28;20479;-72
2022/10/17 05:23:01;;;;;;;9.13;5.13;;;17.70;99.30;;;;;;5090427;28;20437;-72
2022/10/17 05:25:28;;;;;;;7.70;6.00;;;17.70;99.60;;;;;;5089144;28;20437;-72
2022/10/17 05:27:54;;;;;;;8.43;5.93;;;17.70;99.70;;;;;;5091605;28;20503;-72
2022/10/17 05:30:21;;;;;;;6.47;5.87;;;17.70;99.80;;;;;;5090928;28;20472;-73
2022/10/17 05:32:48;;;;;;;6.67;6.07;;;17.70;99.80;;;;;;5092065;28;20468;-72
2022/10/17 05:35:15;;;;;;;7.73;5.87;;;17.70;99.80;;;;;;5093096;28;20445;-72
2022/10/17 05:37:43;;;;;;;7.43;6.13;;;17.60;99.90;;;;;;5092762;28;20441;-72
2022/10/17 05:40:10;;;;;;;5.60;5.10;;;17.60;99.90;;;;;;5094953;28;20476;-72
2022/10/17 05:42:37;;;;;;;5.70;5.30;;;17.60;99.90;;;;;;5092245;28;20440;-72
2022/10/17 05:45:05;;;;;;;5.70;4.83;;;17.60;99.80;;;;;;5090199;28;20529;-73
2022/10/17 05:47:32;;;;;;;7.30;5.00;;;17.60;99.70;;;;;;5091918;28;20456;-72
2022/10/17 05:49:59;;;;;;;6.63;5.23;;;17.60;99.50;;;;;;5090982;28;20465;-72
2022/10/17 05:52:25;;;;;;;5.30;4.80;;;17.50;99.20;;;;;;5088882;28;20445;-72
2022/10/17 05:54:54;;;;;;;6.00;5.40;;;17.50;99.10;;;;;;5084768;28;20456;-72
2022/10/17 05:57:20;;;;;;;6.83;5.60;;;17.50;99.00;;;;;;5085605;28;20452;-72
2022/10/17 05:59:47;;;;;;;9.13;5.00;;;17.40;99.00;;;;;;5088235;28;20472;-72
2022/10/17 06:02:14;;;;;;;8.73;5.43;;;17.50;98.90;;;;;;5085186;28;20453;-72
2022/10/17 06:04:44;;;;;;;6.67;5.53;;;17.50;98.80;;;;;;5082285;28;20459;-72
2022/10/17 06:07:11;;;;;;;7.57;5.67;;;17.40;98.80;;;;;;5084230;28;20449;-72
2022/10/17 06:09:38;;;;;;;6.43;5.27;;;17.40;98.90;;;;;;5089006;28;20492;-73
2022/10/17 06:12:07;;;;;;;6.50;6.00;;;17.40;99.10;;;;;;5091184;28;20456;-73
2022/10/17 06:14:34;;;;;;;5.73;5.13;;;17.40;99.10;;;;;;5092586;28;20447;-73
2022/10/17 06:17:01;;;;;;;6.00;5.50;;;17.50;99.10;;;;;;5084585;28;20434;-73
2022/10/17 06:19:28;;;;;;;7.00;5.27;;;17.40;99.00;;;;;;5076439;28;20472;-73
2022/10/17 06:21:55;;;;;;;5.70;5.10;;;17.50;99.10;;;;;;5088733;28;20451;-73
2022/10/17 06:24:21;;;;;;;5.73;5.20;;;17.50;99.10;;;;;;5092779;28;20823;-72
2022/10/17 06:26:50;;;;;;;6.50;5.10;;;17.50;99.00;;;;;;5092921;28;20431;-72
2022/10/17 06:29:18;;;;;;;5.80;5.17;;;17.50;98.90;;;;;;5080168;28;20515;-72
2022/10/17 06:31:44;;;;;;;6.80;6.30;;;17.50;98.70;;;;;;5091454;28;20449;-72
2022/10/17 06:34:11;;;;;;;6.37;5.40;;;17.50;98.70;;;;;;5096398;28;20455;-73
2022/10/17 06:36:38;;;;;;;5.83;5.33;;;17.50;98.60;;;;;;5093632;28;20445;-73
2022/10/17 06:39:05;;;;;;;4.80;4.30;;;17.50;98.60;;;;;;5095673;28;20441;-73
2022/10/17 06:41:31;;;;;;;5.27;4.70;;;17.50;98.60;;;;;;5092872;28;20437;-73
2022/10/17 06:43:58;;;;;;;6.17;5.10;;;17.60;98.70;;;;;;5087644;28;20459;-72
2022/10/17 06:46:28;;;;;;;6.73;5.37;;;17.60;98.70;;;;;;5090262;28;20440;-72
2022/10/17 06:48:55;;;;;;;9.73;6.27;;;17.60;98.60;;;;;;5089555;28;21045;-72
2022/10/17 06:51:22;;;;;;;13.03;6.70;;;17.60;98.50;;;;;;5075818;28;20839;-73
2022/10/17 06:53:48;;;;;;;10.67;5.33;;;17.70;98.80;;;;;;5077033;28;20456;-74
2022/10/17 06:56:15;;;;;;;11.97;6.37;;;17.70;98.90;;;;;;5078245;28;20453;-73
2022/10/17 06:58:42;;;;;;;7.70;6.67;;;17.70;99.00;;;;;;5083052;28;20441;-72
2022/10/17 07:01:10;;;;;;;6.50;5.87;;;17.80;99.20;;;;;;5076701;28;20480;-72
2022/10/17 07:03:40;;;;;;;9.27;7.03;;;17.80;99.40;;;;;;5075244;28;20498;-72
2022/10/17 07:06:07;;;;;;;11.13;6.40;;;17.90;99.40;;;;;;5074900;28;20788;-72
2022/10/17 07:08:34;;;;;;;9.10;5.87;;;17.90;99.40;;;;;;5075314;28;20468;-72
2022/10/17 07:11:09;;;;;;;8.20;6.30;;;18.00;99.50;;;;;;5074988;28;20483;-72
2022/10/17 07:13:35;;;;;;;10.20;6.70;;;18.00;99.30;;;;;;5075852;28;20532;-72
2022/10/17 07:16:02;;;;;;;8.07;6.03;;;18.10;99.30;;;;;;5081055;28;20437;-72
2022/10/17 07:18:29;;;;;;;8.00;6.17;;;18.10;99.50;;;;;;5092861;28;20427;-72
2022/10/17 07:20:57;;;;;;;7.47;5.73;;;18.20;99.50;;;;;;5090702;28;20475;-72
2022/10/17 07:23:24;;;;;;;6.83;6.10;;;18.30;99.40;;;;;;5092861;28;20429;-72
2022/10/17 07:25:51;;;;;;;7.10;6.27;;;18.30;99.20;;;;;;5087538;28;20449;-73
2022/10/17 07:28:19;;;;;;;9.20;6.80;;;18.40;99.20;;;;;;5081516;28;20484;-72
2022/10/17 07:30:46;;;;;;;9.40;6.63;;;18.40;99.20;;;;;;5090412;28;20465;-72
2022/10/17 07:33:12;;;;;;;9.60;7.53;;;18.50;99.20;;;;;;5090786;28;20429;-72
2022/10/17 07:35:40;;;;;;;11.47;6.83;;;18.50;99.30;;;;;;5091237;28;20445;-72
2022/10/17 07:38:08;;;;;;;8.87;5.97;;;18.50;99.30;;;;;;5091298;28;20467;-73
2022/10/17 07:40:35;;;;;;;7.63;6.17;;;18.60;99.30;;;;;;5090963;28;20487;-72
2022/10/17 07:43:02;;;;;;;8.70;5.97;;;18.60;99.30;;;;;;5090638;28;20456;-72
2022/10/17 07:45:29;;;;;;;9.40;6.17;;;18.60;99.20;;;;;;5081271;28;20433;-73
2022/10/17 07:47:56;;;;;;;10.93;7.10;;;18.70;99.20;;;;;;5090112;28;20447;-73
2022/10/17 07:50:23;;;;;;;8.07;6.30;;;18.70;99.10;;;;;;5085632;28;20469;-73
2022/10/17 07:52:50;;;;;;;9.57;6.57;;;18.70;99.10;;;;;;5076577;28;20437;-72
2022/10/17 07:55:18;;;;;;;6.87;6.17;;;18.80;99.20;;;;;;5082224;28;20457;-72
2022/10/17 07:57:45;;;;;;;8.23;6.80;;;18.80;99.20;;;;;;5085485;28;20449;-73
2022/10/17 08:00:12;;;;;;;8.07;6.97;;;18.90;99.20;;;;;;5084063;28;20465;-73
2022/10/17 08:02:39;;;;;;;8.33;5.50;;;18.90;99.10;;;;;;5086840;28;20436;-72
2022/10/17 08:05:07;;;;;;;7.30;5.80;;;19.00;99.20;;;;;;5090237;28;20445;-72
2022/10/17 08:07:33;;;;;;;7.80;5.90;;;19.10;99.10;;;;;;5091608;28;20496;-72
2022/10/17 08:10:00;;;;;;;7.63;6.10;;;19.10;98.90;;;;;;5091213;28;20495;-72
2022/10/17 08:12:31;;;;;;;7.33;5.77;;;19.20;99.00;;;;;;5087899;28;20449;-71
2022/10/17 08:14:58;;;;;;;6.47;5.87;;;19.30;99.10;;;;;;5087148;28;20444;-71
2022/10/17 08:17:25;;;;;;;8.07;6.03;;;19.30;99.00;;;;;;5089388;28;20451;-71
2022/10/17 08:19:52;;;;;;;6.37;5.77;;;19.40;99.00;;;;;;5086892;28;20465;-71
2022/10/17 08:22:19;;;;;;;8.83;5.10;;;19.50;98.90;;;;;;5088154;28;20484;-72
2022/10/17 08:24:46;;;;;;;9.90;6.77;;;19.50;98.70;;;;;;5088684;28;20432;-72
2022/10/17 08:27:13;;;;;;;11.77;5.93;;;19.60;98.60;;;;;;5086495;28;20445;-74
2022/10/17 08:29:41;;;;;;;9.37;5.80;;;19.70;98.10;;;;;;5084462;28;20516;-72
2022/10/17 08:32:09;;;;;;;6.00;5.50;;;19.80;97.70;;;;;;5083990;28;20457;-72
2022/10/17 08:34:35;;;;;;;8.23;5.50;;;19.90;97.60;;;;;;5084128;28;20461;-71
2022/10/17 08:37:02;;;;;;;9.10;5.47;;;20.00;97.30;;;;;;5080606;28;20445;-72
2022/10/17 08:39:29;;;;;;;11.17;5.20;;;20.20;97.00;;;;;;5087217;28;20472;-72
2022/10/17 08:42:06;;;;;;;8.00;5.40;;;20.30;96.80;;;;;;5090108;28;20519;-72
2022/10/17 08:44:45;;;;;;;7.03;6.00;;;20.40;96.70;;;;;;5092449;28;20457;-72
2022/10/17 08:47:16;;;;;;;6.80;4.77;;;20.50;96.60;;;;;;5091057;28;20516;-72
2022/10/17 08:49:50;;;;;;;8.77;5.70;;;20.60;96.40;;;;;;5084196;28;20492;-73
2022/10/17 08:52:24;;;;;;;33.80;5.80;;;20.80;96.10;;;;;;5082177;28;20437;-72
2022/10/17 08:54:51;;;;;;;6.87;5.37;;;20.90;95.10;;;;;;5086940;28;20437;-73
2022/10/17 08:57:18;;;;;;;6.73;5.00;;;20.90;95.00;;;;;;5086847;28;20444;-73
2022/10/17 08:59:51;;;;;;;5.70;4.80;;;21.00;95.00;;;;;;5086270;28;20464;-73
2022/10/17 09:02:37;;;;;;;6.17;4.43;;;21.20;94.70;;;;;;5080880;28;20923;-72
2022/10/17 09:05:30;;;;;;;11.30;3.70;;;21.30;94.00;;;;;;5080288;28;20437;-72
2022/10/17 09:08:05;;;;;;;6.40;3.80;;;21.40;93.00;;;;;;5083619;28;20459;-73
2022/10/17 09:10:41;;;;;;;8.20;4.30;;;21.50;92.40;;;;;;5083482;28;21090;-72
2022/10/17 09:13:21;;;;;;;4.60;3.33;;;21.50;92.10;;;;;;5082547;28;20440;-73
2022/10/17 09:16:03;;;;;;;4.40;3.87;;;21.60;92.10;;;;;;5081272;28;20884;-72
2022/10/17 09:18:33;;;;;;;8.87;4.57;;;21.60;91.60;;;;;;5079913;28;20472;-72
2022/10/17 09:21:04;;;;;;;7.80;4.30;;;21.70;91.40;;;;;;5082916;28;20491;-72
2022/10/17 09:23:38;;;;;;;5.70;3.57;;;21.70;91.10;;;;;;5082141;28;20441;-72
2022/10/17 09:26:05;;;;;;;5.97;4.10;;;21.70;91.10;;;;;;5084870;28;20437;-72
2022/10/17 09:28:34;;;;;;;4.83;3.70;;;21.60;91.20;;;;;;5081517;28;20451;-72
2022/10/17 09:31:05;;;;;;;6.90;3.57;;;21.60;91.30;;;;;;5079913;28;20468;-72
2022/10/17 09:33:37;;;;;;;4.77;3.80;;;21.50;91.60;;;;;;5078893;28;20441;-72
2022/10/17 09:36:10;;;;;;;10.10;3.90;;;21.40;91.70;;;;;;5079050;28;20437;-72
2022/10/17 09:38:41;;;;;;;4.40;3.93;;;21.50;91.80;;;;;;5079636;28;20433;-73
2022/10/17 09:41:17;;;;;;;4.43;3.57;;;21.40;91.60;;;;;;5082029;28;20476;-72
2022/10/17 09:43:44;;;;;;;6.87;3.90;;;21.50;91.60;;;;;;5078643;28;20440;-72
2022/10/17 09:46:18;;;;;;;4.37;3.87;;;21.50;91.70;;;;;;5078961;28;20449;-72
2022/10/17 09:48:49;;;;;;;4.97;3.83;;;21.40;91.60;;;;;;5080034;28;20840;-72
2022/10/17 09:51:16;;;;;;;8.17;4.30;;;21.40;91.90;;;;;;5083311;28;20425;-73
2022/10/17 09:53:47;;;;;;;4.30;3.57;;;21.30;91.90;;;;;;5095185;28;20434;-73
2022/10/17 09:56:15;;;;;;;4.47;4.07;;;21.30;92.10;;;;;;5094498;28;20449;-72
2022/10/17 09:58:44;;;;;;;8.23;4.17;;;21.20;92.30;;;;;;5093742;28;20506;-72
2022/10/17 10:01:23;;;;;;;6.23;3.50;;;21.10;92.40;;;;;;5097268;28;20956;-72
2022/10/17 10:04:08;;;;;;;6.60;4.10;;;21.10;92.50;;;;;;5094979;28;20425;-72
2022/10/17 10:06:36;;;;;;;10.47;4.27;;;21.10;92.60;;;;;;5092972;28;20482;-72
2022/10/17 10:09:05;;;;;;;3.93;3.53;;;21.10;92.70;;;;;;5092245;28;20485;-72
2022/10/17 10:11:47;;;;;;;4.37;3.90;;;21.10;92.70;;;;;;5097900;28;20445;-72
2022/10/17 10:14:32;;;;;;;9.33;4.20;;;21.10;92.70;;;;;;5090709;28;20444;-72
2022/10/17 10:17:01;;;;;;;4.40;4.00;;;21.00;92.70;;;;;;5085969;28;20448;-73
2022/10/17 10:19:30;;;;;;;4.87;4.17;;;21.10;93.10;;;;;;5085964;28;20551;-72
2022/10/17 10:21:58;;;;;;;4.13;3.70;;;21.20;92.80;;;;;;5086907;28;20453;-72
2022/10/17 10:24:26;;;;;;;8.70;3.63;;;21.30;92.70;;;;;;5093348;28;20453;-73
2022/10/17 10:26:54;;;;;;;5.27;3.97;;;21.40;92.60;;;;;;5091190;28;20472;-74
2022/10/17 10:29:27;;;;;;;5.80;3.30;;;21.40;92.50;;;;;;5093908;28;20854;-73
2022/10/17 10:31:54;;;;;;;6.07;3.73;;;21.50;92.40;;;;;;5095587;28;20414;-73
2022/10/17 10:34:25;;;;;;;4.73;3.90;;;21.60;92.30;;;;;;5089282;28;20449;-73
2022/10/17 10:36:57;;;;;;;5.17;3.73;;;21.70;92.20;;;;;;5079401;28;20909;-74
2022/10/17 10:39:34;;;;;;;5.83;4.00;;;21.80;92.00;;;;;;5080892;28;20464;-74
2022/10/17 10:42:02;;;;;;;4.73;3.30;;;21.80;91.90;;;;;;5075602;28;20456;-74
2022/10/17 10:44:32;;;;;;;5.13;3.73;;;21.90;92.10;;;;;;5086137;28;20440;-75
2022/10/17 10:47:19;;;;;;;6.83;3.60;;;21.90;92.10;;;;;;5076815;28;20436;-75
2022/10/17 10:49:50;;;;;;;4.93;3.60;;;21.90;92.10;;;;;;5074567;28;20531;-74
2022/10/17 10:52:29;;;;;;;4.57;4.10;;;21.90;91.90;;;;;;5076886;28;20437;-74
2022/10/17 10:55:05;;;;;;;6.00;3.90;;;21.90;92.10;;;;;;5076113;28;20441;-74
2022/10/17 10:57:34;;;;;;;6.50;3.80;;;21.90;92.40;;;;;;5074628;28;20440;-74
2022/10/17 11:00:08;;;;;;;6.93;3.90;;;21.90;93.10;;;;;;5074322;28;20472;-74
2022/10/17 11:02:40;;;;;;;8.23;4.57;;;21.90;93.10;;;;;;5079362;28;20435;-73
2022/10/17 11:05:16;;;;;;;4.83;4.23;;;21.90;93.60;;;;;;5077098;28;20444;-73
2022/10/17 11:07:51;;;;;;;8.13;4.17;;;21.90;93.80;;;;;;5074076;28;20931;-73
2022/10/17 11:10:22;;;;;;;3.53;3.20;;;21.90;93.80;;;;;;5075052;28;20531;-73
2022/10/17 11:12:55;;;;;;;8.97;3.87;;;21.90;93.80;;;;;;5075296;28;20874;-73
2022/10/17 11:15:28;;;;;;;5.40;4.10;;;21.90;93.70;;;;;;5083258;28;20453;-72
2022/10/17 11:17:59;;;;;;;4.80;3.80;;;21.80;93.60;;;;;;5076496;28;20433;-72
2022/10/17 11:20:34;;;;;;;5.47;3.87;;;21.80;93.60;;;;;;5074488;28;20472;-73
2022/10/17 11:23:18;;;;;;;5.83;4.17;;;21.80;93.80;;;;;;5075273;28;20448;-73
2022/10/17 11:25:47;;;;;;;6.50;3.47;;;21.80;93.40;;;;;;5075181;28;20537;-73
2022/10/17 11:28:17;;;;;;;8.80;3.83;;;21.70;93.30;;;;;;5076936;28;20477;-74
2022/10/17 11:30:50;;;;;;;9.23;4.07;;;21.70;93.00;;;;;;5076035;28;21018;-73
2022/10/17 11:33:27;;;;;;;4.60;3.87;;;21.70;92.90;;;;;;5077938;28;20437;-73
2022/10/17 11:36:04;;;;;;;4.70;3.63;;;21.80;92.90;;;;;;5094850;28;20431;-73
2022/10/17 11:38:41;;;;;;;7.00;3.80;;;21.80;92.60;;;;;;5093191;28;20459;-73
2022/10/17 11:41:13;;;;;;;5.73;3.63;;;21.80;92.30;;;;;;5086706;28;20599;-73
2022/10/17 11:43:46;;;;;;;3.73;3.40;;;21.80;92.30;;;;;;5083364;28;20469;-73
2022/10/17 11:46:18;;;;;;;5.80;3.70;;;21.80;92.40;;;;;;5082805;28;20441;-73
2022/10/17 11:48:56;;;;;;;4.60;4.20;;;21.80;92.40;;;;;;5074150;28;20467;-73
2022/10/17 11:51:24;;;;;;;8.43;4.13;;;21.80;92.20;;;;;;5073865;28;20995;-73
2022/10/17 11:53:57;;;;;;;6.07;4.20;;;21.70;92.20;;;;;;5075590;28;20449;-73
2022/10/17 11:56:28;;;;;;;7.83;4.00;;;21.70;92.30;;;;;;5077571;28;20925;-73
2022/10/17 11:59:05;;;;;;;6.93;3.80;;;21.70;92.20;;;;;;5076485;28;20433;-73
2022/10/17 12:01:39;;;;;;;5.13;4.10;;;21.60;92.30;;;;;;5083858;28;20432;-73
2022/10/17 12:04:22;;;;;;;4.50;4.10;;;21.60;92.50;;;;;;5090882;28;20428;-73
2022/10/17 12:06:59;;;;;;;5.43;4.03;;;21.50;92.50;;;;;;5088273;28;20437;-73
2022/10/17 12:09:35;;;;;;;6.40;4.00;;;21.50;92.60;;;;;;5089806;28;20469;-73
2022/10/17 12:12:03;;;;;;;7.30;3.70;;;21.50;92.80;;;;;;5089183;28;20475;-72
2022/10/17 12:14:40;;;;;;;5.60;4.13;;;21.40;93.00;;;;;;5077572;28;20451;-73
2022/10/17 12:17:32;;;;;;;5.97;4.10;;;21.40;92.70;;;;;;5080444;28;20444;-73
2022/10/17 12:20:29;;;;;;;5.30;4.00;;;21.40;92.60;;;;;;5083501;28;20521;-72
2022/10/17 12:23:13;;;;;;;5.77;3.97;;;21.40;92.50;;;;;;5081025;28;20479;-72
2022/10/17 12:25:49;;;;;;;10.27;3.60;;;21.40;92.70;;;;;;5074455;28;20445;-73
2022/10/17 12:28:19;;;;;;;5.17;3.80;;;21.30;92.70;;;;;;5076008;28;20924;-72
2022/10/17 12:30:57;;;;;;;8.73;3.80;;;21.30;92.60;;;;;;5074608;28;20493;-72
2022/10/17 12:33:35;;;;;;;10.30;3.77;;;21.30;92.80;;;;;;5083303;28;20453;-72
2022/10/17 12:36:45;;;;;;;8.73;3.97;;;21.30;92.90;;;;;;5077964;28;20443;-72
2022/10/17 12:39:50;;;;;;;6.33;3.57;;;21.30;93.20;;;;;;5078142;28;20473;-72
2022/10/17 12:42:49;;;;;;;5.90;3.77;;;21.30;93.20;;;;;;5088295;28;20454;-73
2022/10/17 12:45:44;;;;;;;7.40;4.50;;;21.30;93.40;;;;;;5087229;28;20430;-73
2022/10/17 12:48:11;;;;;;;6.90;3.43;;;21.30;93.10;;;;;;5082853;28;20936;-74
2022/10/17 12:51:03;;;;;;;5.27;3.53;;;21.40;92.90;;;;;;5077267;28;20484;-73
2022/10/17 12:53:38;;;;;;;6.97;3.50;;;21.40;93.00;;;;;;5073332;28;20440;-73
2022/10/17 12:56:06;;;;;;;8.00;3.70;;;21.40;93.00;;;;;;5073457;28;20808;-73
2022/10/17 12:58:34;;;;;;;7.60;3.13;;;21.40;92.90;;;;;;5082788;28;20441;-73
2022/10/17 13:01:02;;;;;;;7.50;3.27;;;21.40;92.60;;;;;;5087460;28;20472;-73
2022/10/17 13:03:32;;;;;;;5.20;3.50;;;21.40;92.40;;;;;;5086838;28;20499;-72
2022/10/17 13:06:02;;;;;;;4.07;3.33;;;21.40;93.00;;;;;;5082149;28;20429;-73